^^
Grace C. Lehan Memorial Weather Station Historical Data
Daily Summary for February 11, 2021 Units:  Both    English   Metric
Daily Weekly Monthly Yearly
  High: Low: Average:
Temperature: 79.9 °F /  26.6 °C 54.4 °F /  12.4 °C 66.2 °F /  19 °C
Dew Point: 61.5 °F /  16.4 °C 50.9 °F /  10.5 °C 56.2 °F /  13.4 °C
Humidity: 89.5% 48.3% 72%
Wind Speed: 4.3mph /  6.9km/h - 0.3mph /  0.5km/h
Wind Gust: 13mph /  20.9km/h - -
Wind- - WSW
Pressure: 30.15 in /  1020.9 hPa 30.02 in /  1016.5 hPa -
Precipitation: 0.00 in /  0 mm    
 
 
Tabular Data for February 11, 2021
Time Temperature Dew Point Pressure Wind Wind Speed Wind Gust Humidity Rainfall Rate (Hourly) solar
00:00 59.7 °F /  15.4 °C 51.4 °F /  10.8 °C 30.02in /  1016.5hPa Calm   5mph /  8km/h 74% 0.00in /  0mm 0 W/m2
00:09 59.5 °F /  15.3 °C 51.2 °F /  10.7 °C 30.02in /  1016.5hPa Calm   2mph /  3.2km/h 74% 0.00in /  0mm 0 W/m2
00:14 59.5 °F /  15.3 °C 51.3 °F /  10.7 °C 30.02in /  1016.5hPa West 0.4mph /  0.6km/h 4mph /  6.4km/h 74.2% 0.00in /  0mm 0 W/m2
00:19 59.4 °F /  15.2 °C 51.5 °F /  10.8 °C 30.02in /  1016.5hPa West 0.5mph /  0.8km/h 4mph /  6.4km/h 75% 0.00in /  0mm 0 W/m2
00:24 59.4 °F /  15.2 °C 51.5 °F /  10.8 °C 30.03in /  1016.8hPa West 0.3mph /  0.5km/h 4mph /  6.4km/h 75% 0.00in /  0mm 0 W/m2
00:29 59.5 °F /  15.3 °C 51.6 °F /  10.9 °C 30.03in /  1016.8hPa West 0.2mph /  0.3km/h 4mph /  6.4km/h 75% 0.00in /  0mm 0 W/m2
00:34 59.5 °F /  15.3 °C 51.9 °F /  11.1 °C 30.03in /  1016.8hPa Calm   4mph /  6.4km/h 75.8% 0.00in /  0mm 0 W/m2
00:39 59.5 °F /  15.3 °C 51.9 °F /  11.1 °C 30.03in /  1016.8hPa Calm     75.8% 0.00in /  0mm 0 W/m2
00:44 59.4 °F /  15.2 °C 51.9 °F /  11.1 °C 30.03in /  1016.8hPa Calm   3mph /  4.8km/h 76% 0.00in /  0mm 0 W/m2
00:49 59.3 °F /  15.2 °C 51.8 °F /  11 °C 30.03in /  1016.8hPa West 0.1mph /  0.2km/h 3mph /  4.8km/h 76% 0.00in /  0mm 0 W/m2
00:54 59.3 °F /  15.2 °C 51.7 °F /  10.9 °C 30.03in /  1016.8hPa West 0.1mph /  0.2km/h 3mph /  4.8km/h 76% 0.00in /  0mm 0 W/m2
00:59 59.2 °F /  15.1 °C 51.6 °F /  10.9 °C 30.03in /  1016.8hPa West 0.1mph /  0.2km/h 3mph /  4.8km/h 76% 0.00in /  0mm 0 W/m2
01:04 59.1 °F /  15.1 °C 51.6 °F /  10.9 °C 30.03in /  1016.8hPa Calm   3mph /  4.8km/h 76% 0.00in /  0mm 0 W/m2
01:09 59 °F /  15 °C 51.5 °F /  10.8 °C 30.03in /  1016.8hPa West 0.1mph /  0.2km/h 2mph /  3.2km/h 76% 0.00in /  0mm 0 W/m2
01:14 59 °F /  15 °C 51.6 °F /  10.9 °C 30.03in /  1016.8hPa Calm   2mph /  3.2km/h 76.5% 0.00in /  0mm 0 W/m2
01:19 59 °F /  15 °C 51.8 °F /  11 °C 30.03in /  1016.8hPa West 0.1mph /  0.2km/h 2mph /  3.2km/h 77% 0.00in /  0mm 0 W/m2
01:24 59 °F /  15 °C 51.8 °F /  11 °C 30.03in /  1016.8hPa Calm   2mph /  3.2km/h 77% 0.00in /  0mm 0 W/m2
01:29 59 °F /  15 °C 51.8 °F /  11 °C 30.03in /  1016.8hPa Calm   2mph /  3.2km/h 77% 0.00in /  0mm 0 W/m2
01:34 59 °F /  15 °C 51.8 °F /  11 °C 30.03in /  1016.8hPa Calm   2mph /  3.2km/h 77% 0.00in /  0mm 0 W/m2
01:39 59 °F /  15 °C 51.9 °F /  11.1 °C 30.03in /  1016.8hPa Calm     77% 0.00in /  0mm 0 W/m2
01:44 59.1 °F /  15.1 °C 52.2 °F /  11.2 °C 30.03in /  1016.8hPa Calm     77.9% 0.00in /  0mm 0 W/m2
01:49 59.1 °F /  15.1 °C 52.3 °F /  11.3 °C 30.03in /  1016.8hPa Calm     78.2% 0.00in /  0mm 0 W/m2
01:54 59 °F /  15 °C 52.5 °F /  11.4 °C 30.04in /  1017.2hPa Calm     79% 0.00in /  0mm 0 W/m2
01:59 58.9 °F /  14.9 °C 52.4 °F /  11.3 °C 30.04in /  1017.2hPa Calm     79% 0.00in /  0mm 0 W/m2
02:04 58.8 °F /  14.9 °C 52.4 °F /  11.3 °C 30.04in /  1017.2hPa Calm     79.3% 0.00in /  0mm 0 W/m2
02:09 58.6 °F /  14.8 °C 52.2 °F /  11.2 °C 30.05in /  1017.5hPa Calm     79.1% 0.00in /  0mm 0 W/m2
02:14 58.5 °F /  14.7 °C 52.2 °F /  11.2 °C 30.05in /  1017.5hPa Calm     79.7% 0.00in /  0mm 0 W/m2
02:19 58.3 °F /  14.6 °C 52 °F /  11.1 °C 30.05in /  1017.5hPa Calm     79.3% 0.00in /  0mm 0 W/m2
02:24 58.2 °F /  14.6 °C 52.1 °F /  11.2 °C 30.05in /  1017.5hPa Calm     80% 0.00in /  0mm 0 W/m2
02:29 58.1 °F /  14.5 °C 52 °F /  11.1 °C 30.05in /  1017.5hPa Calm     80% 0.00in /  0mm 0 W/m2
02:34 58 °F /  14.4 °C 51.9 °F /  11.1 °C 30.05in /  1017.5hPa Calm     80% 0.00in /  0mm 0 W/m2
02:39 57.9 °F /  14.4 °C 51.8 °F /  11 °C 30.05in /  1017.5hPa Calm     80% 0.00in /  0mm 0 W/m2
02:44 57.8 °F /  14.3 °C 51.9 °F /  11.1 °C 30.05in /  1017.5hPa Calm     80.5% 0.00in /  0mm 0 W/m2
02:49 57.8 °F /  14.3 °C 52 °F /  11.1 °C 30.05in /  1017.5hPa Calm     81% 0.00in /  0mm 0 W/m2
02:54 57.7 °F /  14.3 °C 51.9 °F /  11.1 °C 30.05in /  1017.5hPa Calm     81% 0.00in /  0mm 0 W/m2
02:59 57.6 °F /  14.2 °C 51.9 °F /  11.1 °C 30.05in /  1017.5hPa Calm     81% 0.00in /  0mm 0 W/m2
03:04 57.6 °F /  14.2 °C 51.8 °F /  11 °C 30.06in /  1017.8hPa Calm     81% 0.00in /  0mm 0 W/m2
03:09 57.5 °F /  14.2 °C 51.9 °F /  11.1 °C 30.06in /  1017.8hPa Calm     81.5% 0.00in /  0mm 0 W/m2
03:14 57.3 °F /  14.1 °C 51.8 °F /  11 °C 30.06in /  1017.8hPa Calm     82% 0.00in /  0mm 0 W/m2
03:19 57.1 °F /  13.9 °C 51.7 °F /  10.9 °C 30.06in /  1017.8hPa Calm     82% 0.00in /  0mm 0 W/m2
03:24 57 °F /  13.9 °C 51.9 °F /  11.1 °C 30.06in /  1017.8hPa Calm     83% 0.00in /  0mm 0 W/m2
03:29 56.9 °F /  13.8 °C 51.8 °F /  11 °C 30.06in /  1017.8hPa Calm     83% 0.00in /  0mm 0 W/m2
03:34 56.8 °F /  13.8 °C 51.8 °F /  11 °C 30.06in /  1017.8hPa Calm     83% 0.00in /  0mm 0 W/m2
03:38 56.8 °F /  13.8 °C 52 °F /  11.1 °C 30.06in /  1017.8hPa Calm     84% 0.00in /  0mm 0 W/m2
04:09 56.4 °F /  13.6 °C 51.9 °F /  11.1 °C 30.07in /  1018.2hPa Calm     84.8% 0.00in /  0mm 0 W/m2
04:14 56.3 °F /  13.5 °C 51.9 °F /  11.1 °C 30.07in /  1018.2hPa Calm     85% 0.00in /  0mm 0 W/m2
04:19 56.2 °F /  13.4 °C 51.8 °F /  11 °C 30.07in /  1018.2hPa Calm     85% 0.00in /  0mm 0 W/m2
04:24 56.1 °F /  13.4 °C 51.7 °F /  10.9 °C 30.07in /  1018.2hPa Calm     85% 0.00in /  0mm 0 W/m2
04:29 56 °F /  13.3 °C 51.6 °F /  10.9 °C 30.07in /  1018.2hPa Calm     85.1% 0.00in /  0mm 0 W/m2
04:34 55.9 °F /  13.3 °C 51.8 °F /  11 °C 30.07in /  1018.2hPa Calm     86% 0.00in /  0mm 0 W/m2
04:39 55.8 °F /  13.2 °C 51.7 °F /  10.9 °C 30.07in /  1018.2hPa Calm     86% 0.00in /  0mm 0 W/m2
04:44 55.8 °F /  13.2 °C 51.4 °F /  10.8 °C 30.07in /  1018.2hPa Calm     85.1% 0.00in /  0mm 0 W/m2
04:49 55.8 °F /  13.2 °C 51.4 °F /  10.8 °C 30.08in /  1018.5hPa Calm     85% 0.00in /  0mm 0 W/m2
04:54 55.8 °F /  13.2 °C 51.4 °F /  10.8 °C 30.08in /  1018.5hPa Calm     85% 0.00in /  0mm 0 W/m2
04:59 55.8 °F /  13.2 °C 51.4 °F /  10.8 °C 30.08in /  1018.5hPa Calm     85% 0.00in /  0mm 0 W/m2
05:04 55.8 °F /  13.2 °C 51.4 °F /  10.8 °C 30.08in /  1018.5hPa Calm     85% 0.00in /  0mm 0 W/m2
05:09 55.7 °F /  13.2 °C 51.3 °F /  10.7 °C 30.08in /  1018.5hPa Calm     85% 0.00in /  0mm 0 W/m2
05:14 55.6 °F /  13.1 °C 51.2 °F /  10.7 °C 30.08in /  1018.5hPa Calm     85% 0.00in /  0mm 0 W/m2
05:19 55.5 °F /  13.1 °C 51.3 °F /  10.7 °C 30.08in /  1018.5hPa Calm     85.8% 0.00in /  0mm 0 W/m2
05:24 55.4 °F /  13 °C 51.3 °F /  10.7 °C 30.08in /  1018.5hPa Calm     86% 0.00in /  0mm 0 W/m2
05:29 55.3 °F /  12.9 °C 51.2 °F /  10.7 °C 30.08in /  1018.5hPa Calm     86% 0.00in /  0mm 0 W/m2
05:34 55.1 °F /  12.8 °C 51 °F /  10.6 °C 30.08in /  1018.5hPa Calm     86% 0.00in /  0mm 0 W/m2
05:39 54.9 °F /  12.7 °C 51.1 °F /  10.6 °C 30.09in /  1018.8hPa Calm     87% 0.00in /  0mm 0 W/m2
05:44 54.8 °F /  12.7 °C 51 °F /  10.6 °C 30.09in /  1018.8hPa Calm     87% 0.00in /  0mm 0 W/m2
05:49 54.7 °F /  12.6 °C 50.9 °F /  10.5 °C 30.09in /  1018.8hPa Calm     87.2% 0.00in /  0mm 0 W/m2
05:54 54.6 °F /  12.6 °C 51.1 °F /  10.6 °C 30.10in /  1019.2hPa Calm     88% 0.00in /  0mm 0 W/m2
05:59 54.6 °F /  12.6 °C 51.1 °F /  10.6 °C 30.10in /  1019.2hPa Calm     88% 0.00in /  0mm 0 W/m2
06:04 54.5 °F /  12.5 °C 51 °F /  10.6 °C 30.10in /  1019.2hPa Calm     88% 0.00in /  0mm 0 W/m2
06:09 54.5 °F /  12.5 °C 51 °F /  10.6 °C 30.10in /  1019.2hPa Calm     88% 0.00in /  0mm 0 W/m2
06:14 54.4 °F /  12.4 °C 51 °F /  10.6 °C 30.11in /  1019.5hPa Calm     88% 0.00in /  0mm 0 W/m2
06:19 54.4 °F /  12.4 °C 51 °F /  10.6 °C 30.11in /  1019.5hPa Calm     88.2% 0.00in /  0mm 0 W/m2
06:24 54.5 °F /  12.5 °C 51.3 °F /  10.7 °C 30.11in /  1019.5hPa Calm     88.9% 0.00in /  0mm 0 W/m2
06:29 54.5 °F /  12.5 °C 51.3 °F /  10.7 °C 30.11in /  1019.5hPa Calm     89% 0.00in /  0mm 0 W/m2
06:34 54.5 °F /  12.5 °C 51.1 °F /  10.6 °C 30.11in /  1019.5hPa Calm     88.3% 0.00in /  0mm 5 W/m2
06:39 54.6 °F /  12.6 °C 51.2 °F /  10.7 °C 30.12in /  1019.9hPa Calm     88.5% 0.00in /  0mm 7 W/m2
06:44 54.6 °F /  12.6 °C 51.1 °F /  10.6 °C 30.12in /  1019.9hPa Calm     88% 0.00in /  0mm 7 W/m2
06:49 54.6 °F /  12.6 °C 51.1 °F /  10.6 °C 30.12in /  1019.9hPa Calm     88% 0.00in /  0mm 9 W/m2
06:54 54.6 °F /  12.6 °C 51.1 °F /  10.6 °C 30.12in /  1019.9hPa Calm     88.1% 0.00in /  0mm 11 W/m2
06:59 54.7 °F /  12.6 °C 51.5 °F /  10.8 °C 30.12in /  1019.9hPa Calm     89% 0.00in /  0mm 12 W/m2
07:04 54.7 °F /  12.6 °C 51.5 °F /  10.8 °C 30.13in /  1020.2hPa Calm     89% 0.00in /  0mm 14 W/m2
07:09 54.7 °F /  12.6 °C 51.6 °F /  10.9 °C 30.13in /  1020.2hPa Calm     89% 0.00in /  0mm 16 W/m2
07:14 54.8 °F /  12.7 °C 51.6 °F /  10.9 °C 30.13in /  1020.2hPa Calm     89% 0.00in /  0mm 16 W/m2
07:19 54.8 °F /  12.7 °C 51.7 °F /  10.9 °C 30.13in /  1020.2hPa Calm     89% 0.00in /  0mm 18 W/m2
07:24 54.9 °F /  12.7 °C 51.7 °F /  10.9 °C 30.13in /  1020.2hPa Calm     89% 0.00in /  0mm 19 W/m2
07:29 55.1 °F /  12.8 °C 51.9 °F /  11.1 °C 30.14in /  1020.5hPa Calm     89% 0.00in /  0mm 21 W/m2
07:34 55.2 °F /  12.9 °C 52 °F /  11.1 °C 30.14in /  1020.5hPa Calm     89% 0.00in /  0mm 21 W/m2
07:39 55.4 °F /  13 °C 52.3 °F /  11.3 °C 30.13in /  1020.2hPa Calm     89.5% 0.00in /  0mm 23 W/m2
07:44 55.6 °F /  13.1 °C 52.4 °F /  11.3 °C 30.13in /  1020.2hPa Calm     89% 0.00in /  0mm 23 W/m2
07:49 55.7 °F /  13.2 °C 52.4 °F /  11.3 °C 30.13in /  1020.2hPa Calm     88.4% 0.00in /  0mm 25 W/m2
07:54 56 °F /  13.3 °C 52.5 °F /  11.4 °C 30.13in /  1020.2hPa Calm     88% 0.00in /  0mm 26 W/m2
07:59 56.3 °F /  13.5 °C 52.8 °F /  11.6 °C 30.13in /  1020.2hPa Calm     88% 0.00in /  0mm 33 W/m2
08:09 57.1 °F /  13.9 °C 53.3 °F /  11.8 °C 30.13in /  1020.2hPa Calm     87.2% 0.00in /  0mm 40 W/m2
08:14 57.3 °F /  14.1 °C 53.4 °F /  11.9 °C 30.13in /  1020.2hPa Calm     86.6% 0.00in /  0mm 47 W/m2
08:19 57.7 °F /  14.3 °C 53.5 °F /  11.9 °C 30.13in /  1020.2hPa Calm     86% 0.00in /  0mm 53 W/m2
08:24 58.1 °F /  14.5 °C 53.8 °F /  12.1 °C 30.13in /  1020.2hPa Calm   1mph /  1.6km/h 85.5% 0.00in /  0mm 60 W/m2
08:29 58.6 °F /  14.8 °C 53.8 °F /  12.1 °C 30.13in /  1020.2hPa Calm   1mph /  1.6km/h 84.1% 0.00in /  0mm 98 W/m2
08:34 59.2 °F /  15.1 °C 54.1 °F /  12.3 °C 30.13in /  1020.2hPa Calm   1mph /  1.6km/h 83.2% 0.00in /  0mm 323 W/m2
08:39 59.8 °F /  15.4 °C 54.6 °F /  12.6 °C 30.13in /  1020.2hPa Calm     83% 0.00in /  0mm 373 W/m2
08:44 60.5 °F /  15.8 °C 55 °F /  12.8 °C 30.13in /  1020.2hPa Calm     82.1% 0.00in /  0mm 406 W/m2
08:49 61.5 °F /  16.4 °C 55.5 °F /  13.1 °C 30.14in /  1020.5hPa Calm     80.8% 0.00in /  0mm 424 W/m2
08:54 62.6 °F /  17 °C 56.1 °F /  13.4 °C 30.14in /  1020.5hPa Calm     79.3% 0.00in /  0mm 439 W/m2
08:59 63.8 °F /  17.7 °C 56.4 °F /  13.6 °C 30.14in /  1020.5hPa Calm     76.8% 0.00in /  0mm 457 W/m2
09:04 65.2 °F /  18.4 °C 56.6 °F /  13.7 °C 30.14in /  1020.5hPa Calm     73.8% 0.00in /  0mm 478 W/m2
09:06 66 °F /  18.9 °C 57 °F /  13.9 °C 30.14in /  1020.5hPa Calm     72.8% 0.00in /  0mm 480 W/m2
09:30 71.3 °F /  21.8 °C 60.2 °F /  15.7 °C 30.14in /  1020.5hPa Calm   1mph /  1.6km/h 68% 0.00in /  0mm 508 W/m2
10:00 75 °F /  23.9 °C 60.2 °F /  15.7 °C 30.14in /  1020.5hPa Calm   5mph /  8km/h 60% 0.00in /  0mm 585 W/m2
10:30 76.8 °F /  24.9 °C 59.9 °F /  15.5 °C 30.15in /  1020.9hPa Calm   5mph /  8km/h 56% 0.00in /  0mm 667 W/m2
11:00 78.8 °F /  26 °C 60.2 °F /  15.7 °C 30.14in /  1020.5hPa Calm   7mph /  11.3km/h 53% 0.00in /  0mm 721 W/m2
11:30 79.9 °F /  26.6 °C 59.6 °F /  15.3 °C 30.14in /  1020.5hPa WSW 1mph /  1.6km/h 10mph /  16.1km/h 50% 0.00in /  0mm 773 W/m2
12:09 77.6 °F /  25.3 °C 59.2 °F /  15.1 °C 30.13in /  1020.2hPa West 0.9mph /  1.4km/h 4mph /  6.4km/h 53.1% 0.00in /  0mm 62 W/m2
12:14 77.4 °F /  25.2 °C 59 °F /  15 °C 30.13in /  1020.2hPa WSW 0.8mph /  1.3km/h 5mph /  8km/h 53% 0.00in /  0mm 76 W/m2
12:19 77.3 °F /  25.2 °C 59.4 °F /  15.2 °C 30.13in /  1020.2hPa West 1.8mph /  2.9km/h 10mph /  16.1km/h 54% 0.00in /  0mm 111 W/m2
12:24 77.1 °F /  25.1 °C 59.1 °F /  15.1 °C 30.13in /  1020.2hPa West 0.6mph /  1km/h 10mph /  16.1km/h 53.9% 0.00in /  0mm 97 W/m2
12:29 76.9 °F /  24.9 °C 58.6 °F /  14.8 °C 30.13in /  1020.2hPa WSW 1.2mph /  1.9km/h 10mph /  16.1km/h 53.2% 0.00in /  0mm 111 W/m2
12:34 76.8 °F /  24.9 °C 59.1 °F /  15.1 °C 30.13in /  1020.2hPa WSW 0.3mph /  0.5km/h 10mph /  16.1km/h 54.4% 0.00in /  0mm 139 W/m2
12:39 76.8 °F /  24.9 °C 58.2 °F /  14.6 °C 30.13in /  1020.2hPa WSW 3.9mph /  6.3km/h 13mph /  20.9km/h 52.6% 0.00in /  0mm 144 W/m2
12:44 76.7 °F /  24.8 °C 57.4 °F /  14.1 °C 30.13in /  1020.2hPa WSW 1.4mph /  2.3km/h 13mph /  20.9km/h 51.4% 0.00in /  0mm 142 W/m2
12:49 76.6 °F /  24.8 °C 58.4 °F /  14.7 °C 30.12in /  1019.9hPa SW 0.4mph /  0.6km/h 13mph /  20.9km/h 53.5% 0.00in /  0mm 232 W/m2
12:54 76.6 °F /  24.8 °C 58.5 °F /  14.7 °C 30.12in /  1019.9hPa SW 1.7mph /  2.7km/h 13mph /  20.9km/h 53.4% 0.00in /  0mm 271 W/m2
12:59 76.7 °F /  24.8 °C 58.2 °F /  14.6 °C 30.12in /  1019.9hPa WSW 0.1mph /  0.2km/h 13mph /  20.9km/h 52.8% 0.00in /  0mm 243 W/m2
13:04 76.9 °F /  24.9 °C 59.4 °F /  15.2 °C 30.12in /  1019.9hPa WSW 0.6mph /  1km/h 13mph /  20.9km/h 54.8% 0.00in /  0mm 213 W/m2
13:09 77 °F /  25 °C 58.7 °F /  14.8 °C 30.12in /  1019.9hPa WSW 1mph /  1.6km/h 7mph /  11.3km/h 53.3% 0.00in /  0mm 250 W/m2
13:14 77.1 °F /  25.1 °C 58.9 °F /  14.9 °C 30.12in /  1019.9hPa SW 1.6mph /  2.6km/h 7mph /  11.3km/h 53.3% 0.00in /  0mm 220 W/m2
13:19 77.2 °F /  25.1 °C 58.6 °F /  14.8 °C 30.11in /  1019.5hPa WSW 0.7mph /  1.1km/h 7mph /  11.3km/h 52.7% 0.00in /  0mm 162 W/m2
13:24 77.3 °F /  25.2 °C 59.3 °F /  15.2 °C 30.11in /  1019.5hPa WSW 0.5mph /  0.8km/h 9mph /  14.5km/h 53.8% 0.00in /  0mm 144 W/m2
13:29 77.2 °F /  25.1 °C 58.3 °F /  14.6 °C 30.11in /  1019.5hPa WSW 1.7mph /  2.7km/h 9mph /  14.5km/h 52.2% 0.00in /  0mm 128 W/m2
13:34 77.1 °F /  25.1 °C 58.6 °F /  14.8 °C 30.11in /  1019.5hPa WSW 1.7mph /  2.7km/h 9mph /  14.5km/h 53% 0.00in /  0mm 149 W/m2
13:39 77 °F /  25 °C 57.9 °F /  14.4 °C 30.11in /  1019.5hPa WSW 2.3mph /  3.7km/h 11mph /  17.7km/h 51.7% 0.00in /  0mm 132 W/m2
13:44 76.9 °F /  24.9 °C 58 °F /  14.4 °C 30.11in /  1019.5hPa WSW 1.1mph /  1.8km/h 11mph /  17.7km/h 52.1% 0.00in /  0mm 120 W/m2
13:49 77 °F /  25 °C 58.8 °F /  14.9 °C 30.11in /  1019.5hPa WSW 0.8mph /  1.3km/h 11mph /  17.7km/h 53.3% 0.00in /  0mm 120 W/m2
13:54 77.2 °F /  25.1 °C 58.9 °F /  14.9 °C 30.11in /  1019.5hPa SW 0.6mph /  1km/h 11mph /  17.7km/h 53.2% 0.00in /  0mm 118 W/m2
13:59 77.3 °F /  25.2 °C 59.3 °F /  15.2 °C 30.11in /  1019.5hPa WSW 0.5mph /  0.8km/h 11mph /  17.7km/h 53.8% 0.00in /  0mm 139 W/m2
14:04 77.4 °F /  25.2 °C 58.5 °F /  14.7 °C 30.11in /  1019.5hPa West 1.4mph /  2.3km/h 11mph /  17.7km/h 52.2% 0.00in /  0mm 151 W/m2
14:09 77.3 °F /  25.2 °C 57.9 °F /  14.4 °C 30.11in /  1019.5hPa WSW 1.7mph /  2.7km/h 8mph /  12.9km/h 51.2% 0.00in /  0mm 211 W/m2
14:14 77.4 °F /  25.2 °C 59 °F /  15 °C 30.10in /  1019.2hPa West 0.9mph /  1.4km/h 8mph /  12.9km/h 53.2% 0.00in /  0mm 424 W/m2
14:19 77.6 °F /  25.3 °C 59 °F /  15 °C 30.10in /  1019.2hPa West 1.9mph /  3.1km/h 8mph /  12.9km/h 52.8% 0.00in /  0mm 594 W/m2
14:24 78 °F /  25.6 °C 58.2 °F /  14.6 °C 30.10in /  1019.2hPa WSW 1mph /  1.6km/h 8mph /  12.9km/h 50.7% 0.00in /  0mm 780 W/m2
14:29 78.3 °F /  25.7 °C 58.8 °F /  14.9 °C 30.10in /  1019.2hPa WSW 1.4mph /  2.3km/h 8mph /  12.9km/h 51.2% 0.00in /  0mm 780 W/m2
14:34 78.7 °F /  25.9 °C 59.3 °F /  15.2 °C 30.10in /  1019.2hPa West 0.4mph /  0.6km/h 8mph /  12.9km/h 51.6% 0.00in /  0mm 729 W/m2
14:39 78.8 °F /  26 °C 59.1 °F /  15.1 °C 30.10in /  1019.2hPa West 0.8mph /  1.3km/h 4mph /  6.4km/h 50.9% 0.00in /  0mm 264 W/m2
14:44 78.5 °F /  25.8 °C 58.8 °F /  14.9 °C 30.09in /  1018.8hPa West 0.3mph /  0.5km/h 4mph /  6.4km/h 50.7% 0.00in /  0mm 195 W/m2
14:48 78.2 °F /  25.7 °C 58.7 °F /  14.8 °C 30.09in /  1018.8hPa West 0.3mph /  0.5km/h 4mph /  6.4km/h 51.1% 0.00in /  0mm 867 W/m2
14:54 78.3 °F /  25.7 °C 58.9 °F /  14.9 °C 30.09in /  1018.8hPa WSW 1.1mph /  1.8km/h 10mph /  16.1km/h 51.4% 0.00in /  0mm 814 W/m2
14:59 78.5 °F /  25.8 °C 58.2 °F /  14.6 °C 30.09in /  1018.8hPa SW 0.8mph /  1.3km/h 10mph /  16.1km/h 49.9% 0.00in /  0mm 636 W/m2
15:04 78.6 °F /  25.9 °C 59 °F /  15 °C 30.09in /  1018.8hPa SW 0.1mph /  0.2km/h 10mph /  16.1km/h 51% 0.00in /  0mm 671 W/m2
15:09 78.9 °F /  26.1 °C 58.9 °F /  14.9 °C 30.09in /  1018.8hPa SW 1.2mph /  1.9km/h 6mph /  9.7km/h 50.5% 0.00in /  0mm 671 W/m2
15:14 79 °F /  26.1 °C 58.9 °F /  14.9 °C 30.09in /  1018.8hPa WSW 1mph /  1.6km/h 6mph /  9.7km/h 50.1% 0.00in /  0mm 696 W/m2
15:19 79 °F /  26.1 °C 58.9 °F /  14.9 °C 30.09in /  1018.8hPa WSW 1.3mph /  2.1km/h 10mph /  16.1km/h 50.2% 0.00in /  0mm 612 W/m2
15:24 79.1 °F /  26.2 °C 58.9 °F /  14.9 °C 30.08in /  1018.5hPa WSW 3.3mph /  5.3km/h 10mph /  16.1km/h 50.1% 0.00in /  0mm 712 W/m2
15:29 79.2 °F /  26.2 °C 59.2 °F /  15.1 °C 30.08in /  1018.5hPa WNW 0.9mph /  1.4km/h 10mph /  16.1km/h 50.4% 0.00in /  0mm 687 W/m2
15:34 79.4 °F /  26.3 °C 59.2 °F /  15.1 °C 30.08in /  1018.5hPa NW 0.8mph /  1.3km/h 10mph /  16.1km/h 50% 0.00in /  0mm 659 W/m2
15:39 79.5 °F /  26.4 °C 59.5 °F /  15.3 °C 30.08in /  1018.5hPa WNW 0.3mph /  0.5km/h 4mph /  6.4km/h 50.5% 0.00in /  0mm 619 W/m2
15:44 79.6 °F /  26.4 °C 59.4 °F /  15.2 °C 30.08in /  1018.5hPa West 1mph /  1.6km/h 10mph /  16.1km/h 50.1% 0.00in /  0mm 605 W/m2
15:49 79.7 °F /  26.5 °C 59.2 °F /  15.1 °C 30.08in /  1018.5hPa West 2.1mph /  3.4km/h 10mph /  16.1km/h 49.6% 0.00in /  0mm 610 W/m2
15:54 79.6 °F /  26.4 °C 59.1 °F /  15.1 °C 30.08in /  1018.5hPa WSW 0.8mph /  1.3km/h 10mph /  16.1km/h 49.6% 0.00in /  0mm 601 W/m2
15:59 79.5 °F /  26.4 °C 59.1 °F /  15.1 °C 30.08in /  1018.5hPa WSW 1.9mph /  3.1km/h 10mph /  16.1km/h 49.8% 0.00in /  0mm 570 W/m2
16:00 79.3 °F /  26.3 °C 58.5 °F /  14.7 °C 30.07in /  1018.2hPa SW 4.3mph /  6.9km/h 10mph /  16.1km/h 49% 0.00in /  0mm 62 W/m2
16:09 79 °F /  26.1 °C 57.8 °F /  14.3 °C 30.07in /  1018.2hPa WSW 1.1mph /  1.8km/h 5mph /  8km/h 48.3% 0.00in /  0mm 67 W/m2
16:14 78.7 °F /  25.9 °C 57.9 °F /  14.4 °C 30.07in /  1018.2hPa SW 1.1mph /  1.8km/h 6mph /  9.7km/h 48.9% 0.00in /  0mm 67 W/m2
16:19 78.3 °F /  25.7 °C 57.8 °F /  14.3 °C 30.07in /  1018.2hPa SW 1.3mph /  2.1km/h 6mph /  9.7km/h 49.3% 0.00in /  0mm 63 W/m2
16:24 78 °F /  25.6 °C 58.1 °F /  14.5 °C 30.07in /  1018.2hPa SW 0.8mph /  1.3km/h 6mph /  9.7km/h 50.4% 0.00in /  0mm 67 W/m2
16:29 77.8 °F /  25.4 °C 58 °F /  14.4 °C 30.07in /  1018.2hPa West 0.5mph /  0.8km/h 6mph /  9.7km/h 50.5% 0.00in /  0mm 67 W/m2
16:34 77.6 °F /  25.3 °C 57.7 °F /  14.3 °C 30.07in /  1018.2hPa WSW 0.6mph /  1km/h 6mph /  9.7km/h 50.4% 0.00in /  0mm 67 W/m2
16:39 77.5 °F /  25.3 °C 58.5 °F /  14.7 °C 30.07in /  1018.2hPa WSW 0.7mph /  1.1km/h 5mph /  8km/h 52% 0.00in /  0mm 76 W/m2
16:44 77.4 °F /  25.2 °C 58.4 °F /  14.7 °C 30.07in /  1018.2hPa West 0.3mph /  0.5km/h 5mph /  8km/h 52.1% 0.00in /  0mm 74 W/m2
16:49 77.2 °F /  25.1 °C 58.9 °F /  14.9 °C 30.07in /  1018.2hPa West 0.4mph /  0.6km/h 5mph /  8km/h 53.2% 0.00in /  0mm 90 W/m2
16:54 77 °F /  25 °C 59.2 °F /  15.1 °C 30.06in /  1017.8hPa WSW 0.1mph /  0.2km/h 5mph /  8km/h 54.2% 0.00in /  0mm 90 W/m2
16:59 76.8 °F /  24.9 °C 58.4 °F /  14.7 °C 30.06in /  1017.8hPa WSW 0.4mph /  0.6km/h 5mph /  8km/h 53.1% 0.00in /  0mm 60 W/m2
17:04 76.5 °F /  24.7 °C 58.5 °F /  14.7 °C 30.06in /  1017.8hPa WSW 1mph /  1.6km/h 5mph /  8km/h 53.7% 0.00in /  0mm 65 W/m2
17:09 76.3 °F /  24.6 °C 58.6 °F /  14.8 °C 30.06in /  1017.8hPa WSW 0.9mph /  1.4km/h 7mph /  11.3km/h 54.4% 0.00in /  0mm 81 W/m2
17:14 76.2 °F /  24.6 °C 58.7 °F /  14.8 °C 30.06in /  1017.8hPa WSW 0.8mph /  1.3km/h 7mph /  11.3km/h 54.6% 0.00in /  0mm 47 W/m2
17:19 76.1 °F /  24.5 °C 58.3 °F /  14.6 °C 30.06in /  1017.8hPa SW 0.7mph /  1.1km/h 7mph /  11.3km/h 54% 0.00in /  0mm 39 W/m2
17:24 76.1 °F /  24.5 °C 58.3 °F /  14.6 °C 30.06in /  1017.8hPa WSW 0.6mph /  1km/h 7mph /  11.3km/h 54.2% 0.00in /  0mm 33 W/m2
17:29 76 °F /  24.4 °C 58.7 °F /  14.8 °C 30.06in /  1017.8hPa WSW 0.8mph /  1.3km/h 7mph /  11.3km/h 55% 0.00in /  0mm 35 W/m2
17:34 76 °F /  24.4 °C 58.7 °F /  14.8 °C 30.05in /  1017.5hPa WSW 1.3mph /  2.1km/h 7mph /  11.3km/h 55.1% 0.00in /  0mm 44 W/m2
17:39 75.9 °F /  24.4 °C 58.3 °F /  14.6 °C 30.06in /  1017.8hPa SW 0.2mph /  0.3km/h 5mph /  8km/h 54.4% 0.00in /  0mm 44 W/m2
17:44 75.8 °F /  24.3 °C 58.9 °F /  14.9 °C 30.06in /  1017.8hPa SW 0.1mph /  0.2km/h 5mph /  8km/h 55.7% 0.00in /  0mm 39 W/m2
17:49 75.8 °F /  24.3 °C 58.9 °F /  14.9 °C 30.06in /  1017.8hPa SW 0.2mph /  0.3km/h 5mph /  8km/h 55.9% 0.00in /  0mm 30 W/m2
17:54 75.7 °F /  24.3 °C 58.8 °F /  14.9 °C 30.05in /  1017.5hPa SW 0.1mph /  0.2km/h 5mph /  8km/h 55.8% 0.00in /  0mm 30 W/m2
17:59 75.6 °F /  24.2 °C 58.9 °F /  14.9 °C 30.05in /  1017.5hPa WSW 0.6mph /  1km/h 5mph /  8km/h 56.2% 0.00in /  0mm 39 W/m2
18:04 75.4 °F /  24.1 °C 58.3 °F /  14.6 °C 30.06in /  1017.8hPa SW 1.4mph /  2.3km/h 5mph /  8km/h 55.4% 0.00in /  0mm 51 W/m2
18:09 75.1 °F /  23.9 °C 58 °F /  14.4 °C 30.05in /  1017.5hPa SW 0.8mph /  1.3km/h 5mph /  8km/h 55.3% 0.00in /  0mm 51 W/m2
18:14 74.9 °F /  23.8 °C 58.4 °F /  14.7 °C 30.06in /  1017.8hPa SW 0.3mph /  0.5km/h 6mph /  9.7km/h 56.5% 0.00in /  0mm 21 W/m2
18:15 74.8 °F /  23.8 °C 58.9 °F /  14.9 °C 30.06in /  1017.8hPa SW 0.9mph /  1.4km/h 6mph /  9.7km/h 57.6% 0.00in /  0mm 21 W/m2
18:30 73.9 °F /  23.3 °C 59.2 °F /  15.1 °C 30.06in /  1017.8hPa Calm   6mph /  9.7km/h 60% 0.00in /  0mm 25 W/m2
19:00 72.1 °F /  22.3 °C 59.3 °F /  15.2 °C 30.06in /  1017.8hPa Calm   6mph /  9.7km/h 64% 0.00in /  0mm 7 W/m2
19:30 70.7 °F /  21.5 °C 59.6 °F /  15.3 °C 30.06in /  1017.8hPa Calm   7mph /  11.3km/h 68% 0.00in /  0mm 0 W/m2
20:04 69.7 °F /  20.9 °C 60.1 °F /  15.6 °C 30.07in /  1018.2hPa Calm   7mph /  11.3km/h 71.6% 0.00in /  0mm 0 W/m2
20:09 69.5 °F /  20.8 °C 60.4 °F /  15.8 °C 30.07in /  1018.2hPa Calm     72.7% 0.00in /  0mm 0 W/m2
20:14 69.4 °F /  20.8 °C 60.3 °F /  15.7 °C 30.07in /  1018.2hPa Calm     73% 0.00in /  0mm 0 W/m2
20:19 69.3 °F /  20.7 °C 60.2 °F /  15.7 °C 30.07in /  1018.2hPa Calm     73% 0.00in /  0mm 0 W/m2
20:24 69.1 °F /  20.6 °C 60.4 °F /  15.8 °C 30.08in /  1018.5hPa Calm     73.8% 0.00in /  0mm 0 W/m2
20:29 69 °F /  20.6 °C 60.4 °F /  15.8 °C 30.08in /  1018.5hPa Calm     74% 0.00in /  0mm 0 W/m2
20:34 68.8 °F /  20.4 °C 60.5 °F /  15.8 °C 30.08in /  1018.5hPa Calm     74.8% 0.00in /  0mm 0 W/m2
20:39 68.7 °F /  20.4 °C 60.5 °F /  15.8 °C 30.08in /  1018.5hPa Calm     75% 0.00in /  0mm 0 W/m2
20:44 68.6 °F /  20.3 °C 60.5 °F /  15.8 °C 30.08in /  1018.5hPa Calm     75.3% 0.00in /  0mm 0 W/m2
20:49 68.5 °F /  20.3 °C 60.6 °F /  15.9 °C 30.08in /  1018.5hPa Calm     76% 0.00in /  0mm 0 W/m2
20:54 68.3 °F /  20.2 °C 60.7 °F /  15.9 °C 30.08in /  1018.5hPa Calm     76.5% 0.00in /  0mm 0 W/m2
20:59 68.2 °F /  20.1 °C 60.7 °F /  15.9 °C 30.08in /  1018.5hPa Calm     77% 0.00in /  0mm 0 W/m2
21:04 68.1 °F /  20.1 °C 60.6 °F /  15.9 °C 30.08in /  1018.5hPa Calm     77% 0.00in /  0mm 0 W/m2
21:09 67.9 °F /  19.9 °C 60.8 °F /  16 °C 30.08in /  1018.5hPa Calm     77.9% 0.00in /  0mm 0 W/m2
21:14 67.7 °F /  19.8 °C 60.7 °F /  15.9 °C 30.08in /  1018.5hPa Calm     78.2% 0.00in /  0mm 0 W/m2
21:19 67.6 °F /  19.8 °C 60.9 °F /  16.1 °C 30.08in /  1018.5hPa Calm     79% 0.00in /  0mm 0 W/m2
21:24 67.5 °F /  19.7 °C 60.8 °F /  16 °C 30.08in /  1018.5hPa Calm     79.4% 0.00in /  0mm 0 W/m2
21:29 67.4 °F /  19.7 °C 61 °F /  16.1 °C 30.08in /  1018.5hPa Calm     80% 0.00in /  0mm 0 W/m2
21:34 67.2 °F /  19.6 °C 61 °F /  16.1 °C 30.08in /  1018.5hPa Calm     80.3% 0.00in /  0mm 0 W/m2
21:39 67.1 °F /  19.5 °C 61.1 °F /  16.2 °C 30.08in /  1018.5hPa Calm     81% 0.00in /  0mm 0 W/m2
21:44 67 °F /  19.4 °C 61 °F /  16.1 °C 30.08in /  1018.5hPa Calm   2mph /  3.2km/h 81% 0.00in /  0mm 0 W/m2
21:49 66.8 °F /  19.3 °C 60.8 °F /  16 °C 30.08in /  1018.5hPa Calm   2mph /  3.2km/h 81% 0.00in /  0mm 0 W/m2
21:54 66.7 °F /  19.3 °C 60.9 °F /  16.1 °C 30.08in /  1018.5hPa Calm   2mph /  3.2km/h 81.7% 0.00in /  0mm 0 W/m2
21:59 66.6 °F /  19.2 °C 60.9 °F /  16.1 °C 30.08in /  1018.5hPa Calm   2mph /  3.2km/h 82% 0.00in /  0mm 0 W/m2
22:04 66.4 °F /  19.1 °C 60.7 °F /  15.9 °C 30.08in /  1018.5hPa Calm   2mph /  3.2km/h 82% 0.00in /  0mm 0 W/m2
22:09 66.2 °F /  19 °C 60.7 °F /  15.9 °C 30.08in /  1018.5hPa Calm     82.5% 0.00in /  0mm 0 W/m2
22:14 66 °F /  18.9 °C 60.7 °F /  15.9 °C 30.08in /  1018.5hPa Calm     83% 0.00in /  0mm 0 W/m2
22:19 65.9 °F /  18.8 °C 60.9 °F /  16.1 °C 30.08in /  1018.5hPa Calm     83.9% 0.00in /  0mm 0 W/m2
22:24 65.8 °F /  18.8 °C 61 °F /  16.1 °C 30.08in /  1018.5hPa Calm     84.5% 0.00in /  0mm 0 W/m2
22:29 65.8 °F /  18.8 °C 61.4 °F /  16.3 °C 30.08in /  1018.5hPa Calm     85.6% 0.00in /  0mm 0 W/m2
22:34 65.8 °F /  18.8 °C 61.5 °F /  16.4 °C 30.08in /  1018.5hPa Calm     86% 0.00in /  0mm 0 W/m2
22:39 65.8 °F /  18.8 °C 61.5 °F /  16.4 °C 30.08in /  1018.5hPa Calm     86% 0.00in /  0mm 0 W/m2
22:44 65.8 °F /  18.8 °C 61.5 °F /  16.4 °C 30.08in /  1018.5hPa Calm     86% 0.00in /  0mm 0 W/m2
22:49 65.8 °F /  18.8 °C 61.5 °F /  16.4 °C 30.08in /  1018.5hPa Calm     85.9% 0.00in /  0mm 0 W/m2
22:54 65.8 °F /  18.8 °C 61.3 °F /  16.3 °C 30.08in /  1018.5hPa Calm     85.4% 0.00in /  0mm 0 W/m2
22:59 65.7 °F /  18.7 °C 61.4 °F /  16.3 °C 30.09in /  1018.8hPa Calm     86% 0.00in /  0mm 0 W/m2
23:04 65.7 °F /  18.7 °C 61.4 °F /  16.3 °C 30.08in /  1018.5hPa Calm     86% 0.00in /  0mm 0 W/m2
23:09 65.6 °F /  18.7 °C 61.3 °F /  16.3 °C 30.08in /  1018.5hPa Calm     86% 0.00in /  0mm 0 W/m2
23:14 65.5 °F /  18.6 °C 61.2 °F /  16.2 °C 30.08in /  1018.5hPa Calm     86% 0.00in /  0mm 0 W/m2
23:19 65.3 °F /  18.5 °C 61 °F /  16.1 °C 30.08in /  1018.5hPa Calm     86% 0.00in /  0mm 0 W/m2
23:24 65 °F /  18.3 °C 61 °F /  16.1 °C 30.09in /  1018.8hPa Calm     86.8% 0.00in /  0mm 0 W/m2
23:29 64.8 °F /  18.2 °C 60.8 °F /  16 °C 30.09in /  1018.8hPa Calm     87% 0.00in /  0mm 0 W/m2
23:34 64.6 °F /  18.1 °C 60.8 °F /  16 °C 30.09in /  1018.8hPa Calm     87.6% 0.00in /  0mm 0 W/m2
23:39 64.4 °F /  18 °C 60.7 °F /  15.9 °C 30.08in /  1018.5hPa Calm     88% 0.00in /  0mm 0 W/m2
23:44 64.2 °F /  17.9 °C 60.6 °F /  15.9 °C 30.08in /  1018.5hPa Calm     88% 0.00in /  0mm 0 W/m2
23:49 64 °F /  17.8 °C 60.7 °F /  15.9 °C 30.08in /  1018.5hPa Calm     89% 0.00in /  0mm 0 W/m2
23:54 63.9 °F /  17.7 °C 60.6 °F /  15.9 °C 30.08in /  1018.5hPa Calm     89% 0.00in /  0mm 0 W/m2
23:59 63.8 °F /  17.7 °C 60.6 °F /  15.9 °C 30.08in /  1018.5hPa Calm     89.2% 0.00in /  0mm 0 W/m2
Hartford County Weather
Compliments of Weather Underground - 4 mb